createdAt,value
2023-02-23T00:01:27.851Z,75.25
2023-02-23T00:03:57.454Z,74.04
2023-02-23T00:06:26.380Z,73.84
2023-02-23T00:08:54.339Z,73.77
2023-02-23T00:11:22.657Z,73.92
2023-02-23T00:13:51.473Z,73.54
2023-02-23T00:16:20.851Z,73.89
2023-02-23T00:18:51.533Z,73.26
2023-02-23T00:21:21.163Z,73.62
2023-02-23T00:23:51.037Z,73.40
2023-02-23T00:26:20.758Z,73.81
2023-02-23T00:28:50.908Z,74.37
2023-02-23T00:31:19.133Z,74.41
2023-02-23T00:33:46.826Z,73.37
2023-02-23T00:36:16.067Z,74.07
2023-02-23T00:38:45.868Z,74.54
2023-02-23T00:41:19.930Z,74.31
2023-02-23T00:43:48.264Z,74.18
2023-02-23T00:46:17.380Z,74.46
2023-02-23T00:48:45.714Z,74.98
2023-02-23T00:51:15.632Z,74.57
2023-02-23T00:53:44.084Z,73.99
2023-02-23T00:56:13.868Z,75.01
2023-02-23T00:58:41.961Z,75.24
2023-02-23T01:01:12.005Z,73.97
2023-02-23T01:03:41.269Z,74.78
2023-02-23T01:06:11.397Z,74.45
2023-02-23T01:08:42.476Z,74.84
2023-02-23T01:11:13.693Z,75.18
2023-02-23T01:13:42.562Z,74.95
2023-02-23T01:16:14.593Z,75.28
2023-02-23T01:18:44.408Z,74.90
2023-02-23T01:21:17.381Z,75.35
2023-02-23T01:23:46.691Z,74.69
2023-02-23T01:26:19.069Z,74.92
2023-02-23T01:28:50.216Z,74.44
2023-02-23T01:31:18.674Z,75.16
2023-02-23T01:33:46.950Z,75.12
2023-02-23T01:36:14.966Z,74.51
2023-02-23T01:38:42.431Z,75.47
2023-02-23T01:41:11.332Z,75.03
2023-02-23T01:43:57.744Z,75.25
2023-02-23T01:46:25.292Z,75.37
2023-02-23T01:48:56.213Z,75.53
2023-02-23T01:51:27.750Z,74.87
2023-02-23T01:54:00.952Z,75.10
2023-02-23T01:56:35.585Z,75.18
2023-02-23T01:59:07.091Z,75.18
2023-02-23T02:01:34.664Z,75.70
2023-02-23T02:04:06.391Z,74.99
2023-02-23T02:06:35.434Z,75.37
2023-02-23T02:09:06.515Z,74.93
2023-02-23T02:11:37.063Z,75.27
2023-02-23T02:14:12.747Z,75.08
2023-02-23T02:17:02.133Z,75.14
2023-02-23T02:20:00.102Z,76.17
2023-02-23T02:22:55.466Z,76.04
2023-02-23T02:25:40.453Z,76.20
2023-02-23T02:28:41.167Z,76.17
2023-02-23T02:31:38.633Z,75.12
2023-02-23T02:34:25.053Z,75.40
2023-02-23T02:37:19.930Z,75.63
2023-02-23T02:40:14.443Z,75.83
2023-02-23T02:42:51.185Z,75.54
2023-02-23T02:45:26.266Z,75.82
2023-02-23T02:48:01.800Z,76.29
2023-02-23T02:50:40.235Z,75.21
2023-02-23T02:53:10.879Z,75.88
2023-02-23T02:55:43.785Z,76.82
2023-02-23T02:58:13.730Z,76.42
2023-02-23T03:01:01.495Z,75.58
2023-02-23T03:03:49.921Z,76.13
2023-02-23T03:06:35.661Z,76.42
2023-02-23T03:09:26.707Z,75.33
2023-02-23T03:12:24.693Z,75.80
2023-02-23T03:15:19.802Z,76.41
2023-02-23T03:18:06.770Z,76.60
2023-02-23T03:21:02.201Z,76.52
2023-02-23T03:23:58.578Z,76.44
2023-02-23T03:26:51.600Z,76.79
2023-02-23T03:29:48.443Z,75.90
2023-02-23T03:32:41.329Z,76.12
2023-02-23T03:35:33.238Z,76.20
2023-02-23T03:38:25.634Z,76.52
2023-02-23T03:41:13.490Z,76.41
2023-02-23T03:44:04.935Z,76.50
2023-02-23T03:46:50.818Z,76.56
2023-02-23T03:49:39.720Z,77.34
2023-02-23T03:52:30.573Z,78.60
2023-02-23T03:55:17.892Z,77.37
2023-02-23T03:58:08.638Z,77.46
2023-02-23T04:00:58.655Z,76.48
2023-02-23T04:03:46.148Z,76.38
2023-02-23T04:06:33.367Z,77.12
2023-02-23T04:09:23.182Z,76.57
2023-02-23T04:12:14.034Z,77.35
2023-02-23T04:14:45.512Z,76.50
2023-02-23T04:17:20.927Z,76.58
2023-02-23T04:19:51.360Z,77.22
2023-02-23T04:22:18.940Z,76.42
2023-02-23T04:24:46.913Z,77.19
2023-02-23T04:27:14.382Z,78.37
2023-02-23T04:29:42.279Z,77.77
2023-02-23T04:32:15.928Z,77.62
2023-02-23T04:34:43.857Z,77.17
2023-02-23T04:37:12.362Z,77.05
2023-02-23T04:39:39.929Z,76.74
2023-02-23T04:42:07.457Z,77.55
2023-02-23T04:44:34.963Z,77.17
2023-02-23T04:47:02.493Z,78.36
2023-02-23T04:49:31.334Z,77.96
2023-02-23T04:51:59.316Z,77.97
2023-02-23T04:54:26.997Z,77.90
2023-02-23T04:56:54.547Z,77.24
2023-02-23T04:59:22.046Z,77.46
2023-02-23T05:01:49.682Z,77.14
2023-02-23T05:04:17.198Z,78.33
2023-02-23T05:06:46.028Z,77.67
2023-02-23T05:09:13.515Z,77.16
2023-02-23T05:11:41.199Z,76.61
2023-02-23T05:14:09.225Z,76.26
2023-02-23T05:16:36.909Z,77.64
2023-02-23T05:19:04.468Z,77.45
2023-02-23T05:21:32.226Z,76.94
2023-02-23T05:24:01.290Z,77.06
2023-02-23T05:26:29.312Z,77.02
2023-02-23T05:28:57.084Z,76.30
2023-02-23T05:31:24.793Z,76.74
2023-02-23T05:33:53.808Z,77.36
2023-02-23T05:36:22.577Z,77.56
2023-02-23T05:38:50.174Z,76.71
2023-02-23T05:41:21.956Z,76.62
2023-02-23T05:43:51.137Z,77.51
2023-02-23T05:46:21.497Z,77.73
2023-02-23T05:48:49.239Z,77.87
2023-02-23T05:51:18.346Z,77.64
2023-02-23T05:53:46.639Z,77.86
2023-02-23T05:56:20.210Z,77.33
2023-02-23T05:58:49.304Z,76.90
2023-02-23T06:01:18.519Z,76.45
2023-02-23T06:03:46.915Z,76.78
2023-02-23T06:06:14.645Z,77.22
2023-02-23T06:08:42.764Z,76.47
2023-02-23T06:11:10.603Z,76.47
2023-02-23T06:13:38.105Z,76.89
2023-02-23T06:16:08.464Z,76.49
2023-02-23T06:18:36.131Z,77.06
2023-02-23T06:21:04.073Z,76.89
2023-02-23T06:23:33.183Z,76.99
2023-02-23T06:26:00.926Z,76.88
2023-02-23T06:28:29.672Z,76.96
2023-02-23T06:30:57.709Z,77.18
2023-02-23T06:33:27.205Z,76.37
2023-02-23T06:35:55.210Z,76.77
2023-02-23T06:38:23.831Z,76.68
2023-02-23T06:40:51.337Z,76.90
2023-02-23T06:43:18.959Z,76.92
2023-02-23T06:45:47.830Z,76.71
2023-02-23T06:48:15.371Z,76.86
2023-02-23T06:50:44.545Z,78.39
2023-02-23T06:53:12.308Z,77.46
2023-02-23T06:55:39.768Z,77.33
2023-02-23T06:58:07.901Z,77.26
2023-02-23T07:00:35.481Z,76.78
2023-02-23T07:03:02.968Z,76.79
2023-02-23T07:05:30.461Z,76.87
2023-02-23T07:07:59.338Z,76.61
2023-02-23T07:10:26.839Z,76.62
2023-02-23T07:12:54.946Z,76.70
2023-02-23T07:15:22.434Z,77.04
2023-02-23T07:17:51.282Z,76.91
2023-02-23T07:20:19.550Z,76.51
2023-02-23T07:22:47.041Z,77.21
2023-02-23T07:25:15.975Z,77.07
2023-02-23T07:27:46.444Z,76.79
2023-02-23T07:30:14.851Z,77.22
2023-02-23T07:32:42.471Z,76.90
2023-02-23T07:35:13.135Z,76.66
2023-02-23T07:37:40.606Z,76.56
2023-02-23T07:40:09.259Z,77.09
2023-02-23T07:42:38.232Z,77.51
2023-02-23T07:45:07.020Z,77.64
2023-02-23T07:47:34.620Z,77.32
2023-02-23T07:50:03.451Z,77.92
2023-02-23T07:52:31.193Z,77.78
2023-02-23T07:54:58.639Z,76.48
2023-02-23T07:57:26.760Z,77.01
2023-02-23T07:59:55.613Z,76.94
2023-02-23T08:02:23.325Z,77.42
2023-02-23T08:04:54.029Z,76.66
2023-02-23T08:07:21.730Z,76.95
2023-02-23T08:09:49.572Z,77.19
2023-02-23T08:12:17.016Z,76.61
2023-02-23T08:14:44.633Z,76.79
2023-02-23T08:17:13.413Z,76.90
2023-02-23T08:19:41.078Z,76.37
2023-02-23T08:22:10.234Z,76.55
2023-02-23T08:24:39.229Z,78.47
2023-02-23T08:27:06.796Z,78.33
2023-02-23T08:29:34.925Z,77.63
2023-02-23T08:32:03.562Z,77.23
2023-02-23T08:34:32.563Z,76.41
2023-02-23T08:37:00.230Z,76.99
2023-02-23T08:39:27.911Z,76.75
2023-02-23T08:41:55.569Z,77.00
2023-02-23T08:44:23.120Z,76.96
2023-02-23T08:46:50.817Z,77.21
2023-02-23T08:49:18.267Z,76.83
2023-02-23T08:51:47.279Z,76.53
2023-02-23T08:54:16.147Z,77.79
2023-02-23T08:56:44.381Z,77.41
2023-02-23T08:59:13.482Z,77.33
2023-02-23T09:01:42.225Z,77.53
2023-02-23T09:04:09.747Z,77.32
2023-02-23T09:06:38.114Z,76.96
2023-02-23T09:09:06.974Z,77.25
2023-02-23T09:11:34.505Z,76.71
2023-02-23T09:14:02.013Z,77.13
2023-02-23T09:16:29.512Z,77.27
2023-02-23T09:19:01.397Z,78.16
2023-02-23T09:21:29.913Z,76.92
2023-02-23T09:23:58.514Z,76.75
2023-02-23T09:26:29.400Z,77.20
2023-02-23T09:28:58.825Z,77.71
2023-02-23T09:31:26.571Z,77.19
2023-02-23T09:33:55.075Z,75.68
2023-02-23T09:36:24.623Z,76.54
2023-02-23T09:38:55.289Z,76.36
2023-02-23T09:41:56.952Z,75.62
2023-02-23T09:44:37.908Z,75.59
2023-02-23T09:47:19.567Z,75.48
2023-02-23T09:49:49.983Z,76.02
2023-02-23T09:52:22.052Z,75.35
2023-02-23T09:54:49.782Z,75.45
2023-02-23T09:57:24.623Z,75.96
2023-02-23T09:59:53.056Z,75.11
2023-02-23T10:02:25.124Z,76.15
2023-02-23T10:04:57.683Z,75.12
2023-02-23T10:07:35.004Z,75.59
2023-02-23T10:10:16.725Z,75.82
2023-02-23T10:12:55.397Z,76.12
2023-02-23T10:15:33.393Z,75.40
2023-02-23T10:18:12.429Z,75.42
2023-02-23T10:20:48.537Z,74.84
2023-02-23T10:23:20.998Z,75.60
2023-02-23T10:25:53.114Z,76.11
2023-02-23T10:28:23.197Z,75.55
2023-02-23T10:30:51.664Z,75.90
2023-02-23T10:33:25.265Z,75.30
2023-02-23T10:36:12.518Z,75.30
2023-02-23T10:38:41.137Z,75.27
2023-02-23T10:41:14.653Z,75.43
2023-02-23T10:43:43.743Z,75.93
2023-02-23T10:46:18.548Z,74.87
2023-02-23T10:48:48.279Z,74.98
2023-02-23T10:51:21.152Z,75.49
2023-02-23T10:53:49.069Z,75.10
2023-02-23T10:56:19.512Z,75.19
2023-02-23T10:58:50.949Z,74.48
2023-02-23T11:01:36.188Z,75.26
2023-02-23T11:04:17.245Z,76.27
2023-02-23T11:06:44.822Z,75.41
2023-02-23T11:09:33.141Z,75.39
2023-02-23T11:12:21.532Z,75.86
2023-02-23T11:14:51.340Z,74.70
2023-02-23T11:17:29.389Z,74.41
2023-02-23T11:20:02.439Z,74.86
2023-02-23T11:22:33.821Z,74.85
2023-02-23T11:25:03.875Z,74.36
2023-02-23T11:27:31.476Z,74.16
2023-02-23T11:30:06.836Z,73.96
2023-02-23T11:32:38.607Z,74.39
2023-02-23T11:35:27.919Z,74.27
2023-02-23T11:37:56.474Z,75.61
2023-02-23T11:40:27.079Z,75.73
2023-02-23T11:42:57.090Z,75.10
2023-02-23T11:45:28.043Z,74.97
2023-02-23T11:47:59.394Z,74.96
2023-02-23T11:50:29.740Z,73.90
2023-02-23T11:53:04.321Z,74.47
2023-02-23T11:55:34.534Z,73.58
2023-02-23T11:58:13.282Z,74.48
2023-02-23T12:00:44.417Z,73.92
2023-02-23T12:03:24.158Z,74.86
2023-02-23T12:05:53.747Z,74.70
2023-02-23T12:08:38.479Z,75.10
2023-02-23T12:11:13.388Z,74.33
2023-02-23T12:13:47.387Z,74.56
2023-02-23T12:16:21.281Z,74.21
2023-02-23T12:18:59.798Z,74.07
2023-02-23T12:21:47.926Z,75.94
2023-02-23T12:24:24.224Z,75.00
2023-02-23T12:26:56.431Z,74.56
2023-02-23T12:29:32.586Z,74.99
2023-02-23T12:32:05.706Z,74.27
2023-02-23T12:34:41.084Z,73.63
2023-02-23T12:37:17.276Z,73.58
2023-02-23T12:39:47.557Z,74.12
2023-02-23T12:42:20.368Z,74.29
2023-02-23T12:44:52.505Z,74.60
2023-02-23T12:47:29.932Z,74.07
2023-02-23T12:50:07.088Z,73.58
2023-02-23T12:52:38.594Z,74.10
2023-02-23T12:55:11.205Z,72.64
2023-02-23T12:57:45.808Z,73.41
2023-02-23T13:00:31.124Z,72.46
2023-02-23T13:03:22.791Z,72.33
2023-02-23T13:05:54.342Z,72.23
2023-02-23T13:08:30.198Z,72.55
2023-02-23T13:11:07.663Z,72.43
2023-02-23T13:13:41.738Z,73.11
2023-02-23T13:16:16.703Z,72.29
2023-02-23T13:18:49.977Z,72.12
2023-02-23T13:21:26.012Z,72.60
2023-02-23T13:23:59.362Z,72.54
2023-02-23T13:26:34.135Z,72.67
2023-02-23T13:29:06.261Z,73.07
2023-02-23T13:31:37.878Z,73.26
2023-02-23T13:34:11.993Z,72.17
2023-02-23T13:36:42.007Z,74.08
2023-02-23T13:39:47.632Z,73.13
2023-02-23T13:42:28.382Z,72.66
2023-02-23T13:45:03.723Z,72.32
2023-02-23T13:47:41.764Z,72.96
2023-02-23T13:50:22.477Z,72.54
2023-02-23T13:52:50.764Z,72.65
2023-02-23T13:55:48.725Z,72.08
2023-02-23T13:58:21.067Z,71.08
2023-02-23T14:00:55.638Z,72.86
2023-02-23T14:03:28.122Z,72.80
2023-02-23T14:06:01.111Z,72.40
2023-02-23T14:08:33.596Z,72.31
2023-02-23T14:11:01.916Z,71.99
2023-02-23T14:13:32.730Z,72.08
2023-02-23T14:16:19.564Z,72.78
2023-02-23T14:18:57.850Z,72.51
2023-02-23T14:21:33.695Z,72.50
2023-02-23T14:24:14.797Z,72.33
2023-02-23T14:26:45.693Z,72.58
2023-02-23T14:29:26.546Z,72.33
2023-02-23T14:31:57.115Z,71.57
2023-02-23T14:34:43.153Z,71.98
2023-02-23T14:37:21.917Z,71.50
2023-02-23T14:39:51.001Z,71.68
2023-02-23T14:42:24.377Z,71.99
2023-02-23T14:44:53.988Z,72.31
2023-02-23T14:47:23.316Z,72.17
2023-02-23T14:49:55.690Z,72.10
2023-02-23T14:52:27.945Z,72.37
2023-02-23T14:55:08.823Z,72.70
2023-02-23T14:57:38.095Z,72.04
2023-02-23T15:00:13.516Z,71.99
2023-02-23T15:02:53.869Z,72.15
2023-02-23T15:05:25.178Z,71.91
2023-02-23T15:07:54.513Z,71.79
2023-02-23T15:10:27.158Z,71.62
2023-02-23T15:12:55.482Z,71.48
2023-02-23T15:15:25.546Z,71.23
2023-02-23T15:17:56.688Z,72.17
2023-02-23T15:20:32.399Z,72.13
2023-02-23T15:23:03.691Z,72.20
2023-02-23T15:25:36.866Z,71.60
2023-02-23T15:28:23.390Z,71.98
2023-02-23T15:30:52.272Z,72.13
2023-02-23T15:33:23.278Z,71.96
2023-02-23T15:35:54.616Z,72.11
2023-02-23T15:38:42.960Z,71.82
2023-02-23T15:41:19.100Z,72.07
2023-02-23T15:43:46.928Z,71.70
2023-02-23T15:46:23.975Z,71.70
2023-02-23T15:48:53.087Z,71.92
2023-02-23T15:51:31.812Z,71.46
2023-02-23T15:54:03.468Z,71.08
2023-02-23T15:56:31.605Z,71.35
2023-02-23T15:59:04.918Z,71.22
2023-02-23T16:01:33.440Z,71.97
2023-02-23T16:04:03.619Z,72.47
2023-02-23T16:06:36.808Z,72.20
2023-02-23T16:09:20.589Z,72.15
2023-02-23T16:11:52.112Z,72.75
2023-02-23T16:14:21.637Z,72.39
2023-02-23T16:16:58.438Z,73.18
2023-02-23T16:19:40.566Z,73.41
2023-02-23T16:22:19.582Z,73.60
2023-02-23T16:24:54.395Z,73.77
2023-02-23T16:27:22.334Z,73.39
2023-02-23T16:30:00.045Z,73.71
2023-02-23T16:32:35.589Z,73.41
2023-02-23T16:35:09.667Z,73.48
2023-02-23T16:37:58.476Z,73.24
2023-02-23T16:40:28.093Z,73.38
2023-02-23T16:42:59.237Z,73.44
2023-02-23T16:45:29.307Z,73.30
2023-02-23T16:48:01.955Z,73.41
2023-02-23T16:50:37.360Z,73.07
2023-02-23T16:53:06.606Z,73.70
2023-02-23T16:55:39.197Z,73.88
2023-02-23T16:58:12.075Z,73.95
2023-02-23T17:00:39.575Z,73.56
2023-02-23T17:03:11.601Z,73.68
2023-02-23T17:05:39.366Z,74.06
2023-02-23T17:08:06.978Z,73.91
2023-02-23T17:10:36.430Z,74.49
2023-02-23T17:13:05.938Z,74.12
2023-02-23T17:15:36.378Z,74.66
2023-02-23T17:18:04.415Z,74.10
2023-02-23T17:20:32.540Z,74.06
2023-02-23T17:23:03.003Z,74.52
2023-02-23T17:25:30.563Z,74.68
2023-02-23T17:28:00.992Z,75.04
2023-02-23T17:30:28.855Z,74.29
2023-02-23T17:32:58.307Z,74.56
2023-02-23T17:35:26.847Z,74.57
2023-02-23T17:37:54.568Z,74.46
2023-02-23T17:40:28.630Z,74.12
2023-02-23T17:42:57.064Z,73.85
2023-02-23T17:45:26.647Z,73.69
2023-02-23T17:47:54.080Z,73.98
2023-02-23T17:50:23.118Z,74.41
2023-02-23T17:52:51.978Z,74.09
2023-02-23T17:55:21.086Z,73.97
2023-02-23T17:57:48.838Z,74.47
2023-02-23T18:00:18.707Z,74.39
2023-02-23T18:02:47.717Z,74.97
2023-02-23T18:05:15.934Z,74.45
2023-02-23T18:07:45.468Z,74.96
2023-02-23T18:10:14.528Z,74.15
2023-02-23T18:12:42.109Z,74.32
2023-02-23T18:15:10.136Z,74.68
2023-02-23T18:17:37.603Z,74.43
2023-02-23T18:20:08.124Z,74.76
2023-02-23T18:22:35.578Z,74.30
2023-02-23T18:25:03.055Z,74.25
2023-02-23T18:27:30.550Z,74.57
2023-02-23T18:29:58.291Z,74.05
2023-02-23T18:32:25.903Z,74.56
2023-02-23T18:34:53.589Z,74.14
2023-02-23T18:37:25.058Z,73.91
2023-02-23T18:39:54.368Z,74.73
2023-02-23T18:42:22.282Z,74.04
2023-02-23T18:44:50.200Z,74.16
2023-02-23T18:47:18.010Z,74.21
2023-02-23T18:49:45.587Z,74.44
2023-02-23T18:52:13.444Z,73.92
2023-02-23T18:54:42.492Z,74.15
2023-02-23T18:57:10.057Z,74.21
2023-02-23T18:59:37.541Z,74.21
2023-02-23T19:02:05.277Z,73.72
2023-02-23T19:04:32.835Z,73.89
2023-02-23T19:07:00.378Z,73.69
2023-02-23T19:09:27.852Z,74.12
2023-02-23T19:11:56.672Z,74.42
2023-02-23T19:14:46.433Z,74.01
2023-02-23T19:17:11.613Z,73.89
2023-02-23T19:19:39.073Z,73.97
2023-02-23T19:22:06.550Z,73.66
2023-02-23T19:24:35.759Z,73.54
2023-02-23T19:27:05.820Z,73.52
2023-02-23T19:29:33.394Z,73.61
2023-02-23T19:32:00.991Z,73.75
2023-02-23T19:34:28.514Z,73.20
2023-02-23T19:36:55.946Z,73.17
2023-02-23T19:39:23.421Z,73.42
2023-02-23T19:41:50.898Z,73.23
2023-02-23T19:44:19.762Z,73.10
2023-02-23T19:46:47.252Z,73.17
2023-02-23T19:49:14.742Z,73.42
2023-02-23T19:51:42.211Z,73.56
2023-02-23T19:54:09.713Z,73.71
2023-02-23T19:56:37.952Z,73.97
2023-02-23T19:59:06.583Z,73.81
2023-02-23T20:01:36.013Z,73.96
2023-02-23T20:04:06.569Z,73.81
2023-02-23T20:06:39.303Z,73.96
2023-02-23T20:09:07.249Z,73.85
2023-02-23T20:11:34.754Z,74.32
2023-02-23T20:14:04.128Z,74.42
2023-02-23T20:16:31.861Z,74.00
2023-02-23T20:19:01.373Z,73.95
2023-02-23T20:21:32.156Z,73.46
2023-02-23T20:24:01.348Z,73.57
2023-02-23T20:26:30.773Z,73.96
2023-02-23T20:28:58.816Z,73.95
2023-02-23T20:31:29.885Z,73.75
2023-02-23T20:33:59.554Z,74.27
2023-02-23T20:36:28.438Z,73.89
2023-02-23T20:38:55.910Z,74.25
2023-02-23T20:41:23.746Z,74.05
2023-02-23T20:43:51.654Z,74.04
2023-02-23T20:46:19.722Z,74.08
2023-02-23T20:48:48.881Z,74.25
2023-02-23T20:51:19.751Z,73.78
2023-02-23T20:53:49.613Z,74.08
2023-02-23T20:56:19.537Z,74.22
2023-02-23T20:58:47.492Z,73.96
2023-02-23T21:01:16.143Z,73.94
2023-02-23T21:03:43.784Z,74.19
2023-02-23T21:06:11.282Z,74.15
2023-02-23T21:08:39.870Z,74.30
2023-02-23T21:11:09.294Z,73.81
2023-02-23T21:13:37.454Z,73.44
2023-02-23T21:16:05.293Z,73.51
2023-02-23T21:18:32.839Z,74.20
2023-02-23T21:21:09.418Z,73.83
2023-02-23T21:23:37.559Z,73.65
2023-02-23T21:26:14.094Z,74.16
2023-02-23T21:28:44.282Z,74.14
2023-02-23T21:31:14.161Z,74.52
2023-02-23T21:33:43.212Z,74.36
2023-02-23T21:36:12.540Z,74.46
2023-02-23T21:38:42.837Z,74.24
2023-02-23T21:41:11.278Z,74.40
2023-02-23T21:43:41.417Z,74.36
2023-02-23T21:46:14.001Z,74.09
2023-02-23T21:48:42.039Z,74.51
2023-02-23T21:51:12.250Z,74.14
2023-02-23T21:53:40.428Z,74.23
2023-02-23T21:56:11.508Z,74.99
2023-02-23T21:58:39.979Z,74.45
2023-02-23T22:01:13.496Z,74.69
2023-02-23T22:03:45.047Z,74.11
2023-02-23T22:06:13.223Z,73.87
2023-02-23T22:08:42.954Z,74.41
2023-02-23T22:11:17.434Z,74.32
2023-02-23T22:13:45.466Z,73.93
2023-02-23T22:16:15.389Z,75.09
2023-02-23T22:18:43.495Z,74.73
2023-02-23T22:21:12.660Z,75.16
2023-02-23T22:23:41.486Z,74.84
2023-02-23T22:26:09.363Z,74.31
2023-02-23T22:28:37.330Z,74.29
2023-02-23T22:31:08.084Z,73.93
2023-02-23T22:33:37.855Z,74.29
2023-02-23T22:36:08.010Z,73.93
2023-02-23T22:38:35.896Z,73.06
2023-02-23T22:41:05.308Z,73.23
2023-02-23T22:43:34.163Z,73.80
2023-02-23T22:46:01.887Z,73.23
2023-02-23T22:48:29.597Z,73.73
2023-02-23T22:50:59.546Z,73.28
2023-02-23T22:53:27.634Z,72.74
2023-02-23T22:55:56.660Z,73.19
2023-02-23T22:58:26.179Z,73.64
2023-02-23T23:01:04.023Z,73.09
2023-02-23T23:03:35.951Z,72.53
2023-02-23T23:06:08.408Z,73.05
2023-02-23T23:08:38.676Z,72.73
2023-02-23T23:11:09.552Z,72.20
2023-02-23T23:13:40.862Z,73.08
2023-02-23T23:16:16.853Z,72.84
2023-02-23T23:18:55.093Z,72.70
2023-02-23T23:21:27.936Z,72.70
2023-02-23T23:23:57.172Z,72.93
2023-02-23T23:26:26.309Z,72.71
2023-02-23T23:28:55.734Z,72.08
2023-02-23T23:31:27.964Z,72.69
2023-02-23T23:33:59.885Z,72.66
2023-02-23T23:36:31.907Z,73.13
2023-02-23T23:39:00.024Z,72.61
2023-02-23T23:41:29.310Z,73.54
2023-02-23T23:43:59.024Z,73.15
2023-02-23T23:46:28.267Z,73.06
2023-02-23T23:48:58.468Z,72.67
2023-02-23T23:51:28.398Z,73.40
2023-02-23T23:53:59.330Z,72.91
2023-02-23T23:56:30.415Z,72.44
2023-02-23T23:58:59.211Z,72.73
